NCAR-RAP Real-Time Weather Data

Output produced by METARs form (27 July 2017  18:46 UTC)
found at http://weather.rap.ucar.edu/surface/
 
Conditions at: KSRQ observed 27 July 2017  17:53 UTC
Temperature: 31.7°C (89°F)
Dewpoint: 23.9°C (75°F) [RH = 63%]
Pressure (altimeter): 30.00 inches Hg (1016.0 mb)
[Sea-level pressure: 1015.9 mb]
Winds: from the W (270 degrees) at 9 MPH (8 knots; 4.2 m/s)
Visibility: 10 or more miles (16+ km)
Ceiling: at least 12,000 feet AGL
Clouds: sky clear below 12,000 feet AGL
Present Weather: no significant weather observed at this time
KSRQ 271753Z 27008KT 10SM CLR 32/24 A3000 RMK AO2 LTG DSNT NE SLP159 60000 T03170239 10328 20272 58006

Conditions at: KSRQ observed 27 July 2017  16:53 UTC
Temperature: 31.7°C (89°F)
Dewpoint: 23.3°C (74°F) [RH = 61%]
Pressure (altimeter): 30.02 inches Hg (1016.7 mb)
[Sea-level pressure: 1016.3 mb]
Winds: from the W (270 degrees) at 8 MPH (7 knots; 3.6 m/s)
Visibility: 10 or more miles (16+ km)
Ceiling: at least 12,000 feet AGL
Clouds: sky clear below 12,000 feet AGL
Present Weather: no significant weather observed at this time
KSRQ 271653Z 27007KT 10SM CLR 32/23 A3002 RMK AO2 SLP163 T03170233

Conditions at: KSRQ observed 27 July 2017  15:53 UTC
Temperature: 31.1°C (88°F)
Dewpoint: 22.2°C (72°F) [RH = 59%]
Pressure (altimeter): 30.02 inches Hg (1016.7 mb)
[Sea-level pressure: 1016.6 mb]
Winds: from the SW (230 degrees) at 8 MPH (7 knots; 3.6 m/s)
Visibility: 10 or more miles (16+ km)
Ceiling: at least 12,000 feet AGL
Clouds: sky clear below 12,000 feet AGL
Present Weather: no significant weather observed at this time
KSRQ 271553Z 23007KT 10SM CLR 31/22 A3002 RMK AO2 LTG DSNT SE RAB18E28 SLP166 P0000 T03110222

Conditions at: KSRQ observed 27 July 2017  14:53 UTC
Temperature: 31.1°C (88°F)
Dewpoint: 22.8°C (73°F) [RH = 61%]
Pressure (altimeter): 30.02 inches Hg (1016.7 mb)
[Sea-level pressure: 1016.5 mb]
Winds: from the WSW (250 degrees) at 7 MPH (6 knots; 3.1 m/s)
Visibility: 10 or more miles (16+ km)
Ceiling: at least 12,000 feet AGL
Clouds: sky clear below 12,000 feet AGL
Present Weather: no significant weather observed at this time
KSRQ 271453Z 25006KT 10SM CLR 31/23 A3002 RMK AO2 SLP165 T03110228 57003

Conditions at: KSRQ observed 27 July 2017  13:53 UTC
Temperature: 30.6°C (87°F)
Dewpoint: 23.3°C (74°F) [RH = 65%]
Pressure (altimeter): 30.02 inches Hg (1016.7 mb)
[Sea-level pressure: 1016.5 mb]
Winds: calm
Visibility: 10 or more miles (16+ km)
Ceiling: at least 12,000 feet AGL
Clouds: sky clear below 12,000 feet AGL
Present Weather: no significant weather observed at this time
KSRQ 271353Z 00000KT 10SM CLR 31/23 A3002 RMK AO2 SLP165 T03060233

Conditions at: KSRQ observed 27 July 2017  13:10 UTC
Temperature: 28.3°C (83°F)
Dewpoint: 23.3°C (74°F) [RH = 74%]
Pressure (altimeter): 30.03 inches Hg (1017.0 mb)
Winds: calm
Visibility: 10 or more miles (16+ km)
Ceiling: at least 12,000 feet AGL
Clouds: few clouds at 3800 feet AGL
scattered clouds at 8000 feet AGL
Present Weather: no significant weather observed at this time
KSRQ 271310Z 00000KT 10SM FEW038 SCT080 28/23 A3003 RMK AO2 T02830233

Conditions at: KSRQ observed 27 July 2017  12:53 UTC
Temperature: 28.3°C (83°F)
Dewpoint: 22.8°C (73°F) [RH = 72%]
Pressure (altimeter): 30.03 inches Hg (1017.0 mb)
[Sea-level pressure: 1016.9 mb]
Winds: variable direction winds at 3 MPH (3 knots; 1.6 m/s)
Visibility: 10 or more miles (16+ km)
Ceiling: 8000 feet AGL
Clouds: scattered clouds at 3800 feet AGL
broken clouds at 8000 feet AGL
Present Weather: VCTS  (thunderstorm in vicinity)
KSRQ 271253Z VRB03KT 10SM VCTS SCT038 BKN080 28/23 A3003 RMK AO2 LTG DSNT NW SLP169 T02830228

Conditions at: KSRQ observed 27 July 2017  12:10 UTC
Temperature: 27.2°C (81°F)
Dewpoint: 22.8°C (73°F) [RH = 77%]
Pressure (altimeter): 30.04 inches Hg (1017.4 mb)
Winds: from the WSW (240 degrees) at 8 MPH (7 knots; 3.6 m/s)
Visibility: 10 or more miles (16+ km)
Ceiling: 4100 feet AGL
Clouds: few clouds at 1400 feet AGL
scattered clouds at 3000 feet AGL
overcast cloud deck at 4100 feet AGL
Present Weather: VCTS  (thunderstorm in vicinity)
KSRQ 271210Z 24007KT 10SM VCTS FEW014 SCT030 OVC041 27/23 A3004 RMK AO2 LTG DSNT SW AND W T02720228

Conditions at: KSRQ observed 27 July 2017  11:53 UTC
Temperature: 27.8°C (82°F)
Dewpoint: 22.2°C (72°F) [RH = 72%]
Pressure (altimeter): 30.03 inches Hg (1017.0 mb)
[Sea-level pressure: 1016.8 mb]
Winds: from the W (260 degrees) at 6 MPH (5 knots; 2.6 m/s)
Visibility: 10 or more miles (16+ km)
Ceiling: 2900 feet AGL
Clouds: few clouds at 1400 feet AGL
scattered clouds at 2500 feet AGL
broken clouds at 2900 feet AGL
Present Weather: VCTS  (thunderstorm in vicinity)
KSRQ 271153Z 26005KT 10SM VCTS FEW014 SCT025 BKN029 28/22 A3003 RMK AO2 LTG DSNT ALQDS TSB32E47 SLP168 60000 T02780222 10283 20256 53014

Conditions at: KSRQ observed 27 July 2017  11:46 UTC
Temperature: 27.2°C (81°F)
Dewpoint: 22.8°C (73°F) [RH = 77%]
Pressure (altimeter): 30.03 inches Hg (1017.0 mb)
Winds: from the WSW (240 degrees) at 7 MPH (6 knots; 3.1 m/s)
Visibility: 10 or more miles (16+ km)
Ceiling: 2700 feet AGL
Clouds: few clouds at 1400 feet AGL
broken clouds at 2700 feet AGL
broken clouds at 3100 feet AGL
Present Weather: TS  (thunderstorm)
KSRQ 271146Z 24006KT 10SM TS FEW014 BKN027 BKN031 27/23 A3003 RMK AO2 LTG DSNT S-NW TSB32 T02720228

Conditions at: KSRQ observed 27 July 2017  11:35 UTC
Temperature: 26.7°C (80°F)
Dewpoint: 24.4°C (76°F) [RH = 87%]
Pressure (altimeter): 30.02 inches Hg (1016.7 mb)
Winds: from the S (180 degrees) at 3 MPH (3 knots; 1.6 m/s)
Visibility: 10 or more miles (16+ km)
Ceiling: 3300 feet AGL
Clouds: scattered clouds at 2700 feet AGL
broken clouds at 3300 feet AGL
broken clouds at 9000 feet AGL
Present Weather: TS  (thunderstorm)
KSRQ 271135Z 18003KT 10SM TS SCT027 BKN033 BKN090 27/24 A3002 RMK AO2 LTG DSNT S AND SW TSB32 T02670244

Conditions at: KSRQ observed 27 July 2017  11:29 UTC
Temperature: 26.7°C (80°F)
Dewpoint: 24.4°C (76°F) [RH = 87%]
Pressure (altimeter): 30.02 inches Hg (1016.7 mb)
Winds: from the S (170 degrees) at 3 MPH (3 knots; 1.6 m/s)
Visibility: 10 or more miles (16+ km)
Ceiling: 2900 feet AGL
Clouds: broken clouds at 2900 feet AGL
broken clouds at 7000 feet AGL
overcast cloud deck at 8500 feet AGL
Present Weather: VCTS  (thunderstorm in vicinity)
KSRQ 271129Z 17003KT 10SM VCTS BKN029 BKN070 OVC085 27/24 A3002 RMK AO2 LTG DSNT S-W T02670244

Conditions at: KSRQ observed 27 July 2017  10:53 UTC
Temperature: 25.6°C (78°F)
Dewpoint: 23.9°C (75°F) [RH = 90%]
Pressure (altimeter): 30.00 inches Hg (1016.0 mb)
[Sea-level pressure: 1015.8 mb]
Winds: from the E (100 degrees) at 7 MPH (6 knots; 3.1 m/s)
Visibility: 10 or more miles (16+ km)
Ceiling: at least 12,000 feet AGL
Clouds: sky clear below 12,000 feet AGL
Present Weather: VCTS  (thunderstorm in vicinity)
KSRQ 271053Z 10006KT 10SM VCTS CLR 26/24 A3000 RMK AO2 LTG DSNT SW AND W TSB38E53 SLP158 T02560239

Conditions at: KSRQ observed 27 July 2017  10:38 UTC
Temperature: 25.6°C (78°F)
Dewpoint: 23.9°C (75°F) [RH = 90%]
Pressure (altimeter): 30.01 inches Hg (1016.3 mb)
Winds: calm
Visibility: 10 or more miles (16+ km)
Ceiling: at least 12,000 feet AGL
Clouds: few clouds at 6000 feet AGL
Present Weather: TS  (thunderstorm)
KSRQ 271038Z 00000KT 10SM TS FEW060 26/24 A3001 RMK AO2 LTG DSNT SW TSB38 T02560239

Conditions at: KSRQ observed 27 July 2017  10:23 UTC
Temperature: 26.1°C (79°F)
Dewpoint: 23.9°C (75°F) [RH = 88%]
Pressure (altimeter): 30.00 inches Hg (1016.0 mb)
Winds: from the E (100 degrees) at 6 MPH (5 knots; 2.6 m/s)
Visibility: 10 or more miles (16+ km)
Ceiling: 6000 feet AGL
Clouds: broken clouds at 6000 feet AGL
Present Weather: no significant weather observed at this time
KSRQ 271023Z 10005KT 10SM BKN060 26/24 A3000 RMK AO2 LTG DSNT SW T02610239

Conditions at: KSRQ observed 27 July 2017  10:08 UTC
Temperature: 26.7°C (80°F)
Dewpoint: 23.9°C (75°F) [RH = 85%]
Pressure (altimeter): 30.01 inches Hg (1016.3 mb)
Winds: from the E (90 degrees) at 7 MPH (6 knots; 3.1 m/s)
Visibility: 10 or more miles (16+ km)
Ceiling: 7000 feet AGL
Clouds: scattered clouds at 5500 feet AGL
broken clouds at 7000 feet AGL
Present Weather: VCTS  (thunderstorm in vicinity)
KSRQ 271008Z 09006KT 10SM VCTS SCT055 BKN070 27/24 A3001 RMK AO2 LTG DSNT SW AND W T02670239

Conditions at: KSRQ observed 27 July 2017  09:53 UTC
Temperature: 26.1°C (79°F)
Dewpoint: 23.9°C (75°F) [RH = 88%]
Pressure (altimeter): 30.01 inches Hg (1016.3 mb)
[Sea-level pressure: 1016.0 mb]
Winds: from the ENE (70 degrees) at 6 MPH (5 knots; 2.6 m/s)
Visibility: 10 or more miles (16+ km)
Ceiling: 6500 feet AGL
Clouds: broken clouds at 6500 feet AGL
Present Weather: no significant weather observed at this time
KSRQ 270953Z 07005KT 10SM BKN065 26/24 A3001 RMK AO2 SLP160 T02610239

Conditions at: KSRQ observed 27 July 2017  08:53 UTC
Temperature: 26.7°C (80°F)
Dewpoint: 23.9°C (75°F) [RH = 85%]
Pressure (altimeter): 29.99 inches Hg (1015.7 mb)
[Sea-level pressure: 1015.4 mb]
Winds: from the NE (50 degrees) at 3 MPH (3 knots; 1.6 m/s)
Visibility: 10 or more miles (16+ km)
Ceiling: at least 12,000 feet AGL
Clouds: sky clear below 12,000 feet AGL
Present Weather: automated observation with no human augmentation;
there may or may not be significant weather present at this time
KSRQ 270853Z AUTO 05003KT 10SM CLR 27/24 A2999 RMK AO2 RAB32E41 SLP154 P0000 60000 T02670239 55012

Conditions at: KSRQ observed 27 July 2017  07:53 UTC
Temperature: 27.8°C (82°F)
Dewpoint: 23.3°C (74°F) [RH = 77%]
Pressure (altimeter): 29.99 inches Hg (1015.7 mb)
[Sea-level pressure: 1015.4 mb]
Winds: from the SE (130 degrees) at 6 MPH (5 knots; 2.6 m/s)
Visibility: 10 or more miles (16+ km)
Ceiling: at least 12,000 feet AGL
Clouds: sky clear below 12,000 feet AGL
Present Weather: automated observation with no human augmentation;
there may or may not be significant weather present at this time
KSRQ 270753Z AUTO 13005KT 10SM CLR 28/23 A2999 RMK AO2 SLP154 T02780233

Conditions at: KSRQ observed 27 July 2017  06:53 UTC
Temperature: 27.2°C (81°F)
Dewpoint: 23.9°C (75°F) [RH = 82%]
Pressure (altimeter): 30.01 inches Hg (1016.3 mb)
[Sea-level pressure: 1016.0 mb]
Winds: from the S (170 degrees) at 5 MPH (4 knots; 2.1 m/s)
Visibility: 10 or more miles (16+ km)
Ceiling: at least 12,000 feet AGL
Clouds: sky clear below 12,000 feet AGL
Present Weather: automated observation with no human augmentation;
there may or may not be significant weather present at this time
KSRQ 270653Z AUTO 17004KT 10SM CLR 27/24 A3001 RMK AO2 SLP160 T02720239

Conditions at: KSRQ observed 27 July 2017  05:53 UTC
Temperature: 28.3°C (83°F)
Dewpoint: 24.4°C (76°F) [RH = 79%]
Pressure (altimeter): 30.02 inches Hg (1016.7 mb)
[Sea-level pressure: 1016.6 mb]
Winds: from the NE (50 degrees) at 3 MPH (3 knots; 1.6 m/s)
Visibility: 10 or more miles (16+ km)
Ceiling: 5000 feet AGL
Clouds: broken clouds at 5000 feet AGL
broken clouds at 7000 feet AGL
Present Weather: automated observation with no human augmentation;
there may or may not be significant weather present at this time
KSRQ 270553Z AUTO 05003KT 10SM BKN050 BKN070 28/24 A3002 RMK AO2 SLP166 T02830244 10306 20278 56007

Conditions at: KSRQ observed 27 July 2017  04:53 UTC
Temperature: 27.8°C (82°F)
Dewpoint: 24.4°C (76°F) [RH = 82%]
Pressure (altimeter): 30.03 inches Hg (1017.0 mb)
[Sea-level pressure: 1016.8 mb]
Winds: from the ENE (70 degrees) at 3 MPH (3 knots; 1.6 m/s)
Visibility: 10 or more miles (16+ km)
Ceiling: 7500 feet AGL
Clouds: broken clouds at 7500 feet AGL
overcast cloud deck at 9000 feet AGL
Present Weather: no significant weather observed at this time
KSRQ 270453Z 07003KT 10SM BKN075 OVC090 28/24 A3003 RMK AO2 SLP168 T02780244 403390250

Conditions at: KSRQ observed 27 July 2017  03:53 UTC
Temperature: 28.3°C (83°F)
Dewpoint: 23.9°C (75°F) [RH = 77%]
Pressure (altimeter): 30.04 inches Hg (1017.4 mb)
[Sea-level pressure: 1017.1 mb]
Winds: from the E (90 degrees) at 3 MPH (3 knots; 1.6 m/s)
Visibility: 10 or more miles (16+ km)
Ceiling: at least 12,000 feet AGL
Clouds: few clouds at 5000 feet AGL
Present Weather: no significant weather observed at this time
KSRQ 270353Z 09003KT 10SM FEW050 28/24 A3004 RMK AO2 LTG DSNT NE AND E SLP171 T02830239

Conditions at: KSRQ observed 27 July 2017  02:53 UTC
Temperature: 28.9°C (84°F)
Dewpoint: 22.8°C (73°F) [RH = 70%]
Pressure (altimeter): 30.04 inches Hg (1017.4 mb)
[Sea-level pressure: 1017.3 mb]
Winds: from the NNW (340 degrees) at 5 MPH (4 knots; 2.1 m/s)
Visibility: 10 or more miles (16+ km)
Ceiling: 5500 feet AGL
Clouds: broken clouds at 5500 feet AGL
Present Weather: no significant weather observed at this time
KSRQ 270253Z 34004KT 10SM BKN055 29/23 A3004 RMK AO2 LTG DSNT SE SLP173 T02890228 53016

Conditions at: KSRQ observed 27 July 2017  01:53 UTC
Temperature: 28.9°C (84°F)
Dewpoint: 22.8°C (73°F) [RH = 70%]
Pressure (altimeter): 30.01 inches Hg (1016.3 mb)
[Sea-level pressure: 1016.0 mb]
Winds: from the NNW (330 degrees) at 7 MPH (6 knots; 3.1 m/s)
Visibility: 10 or more miles (16+ km)
Ceiling: at least 12,000 feet AGL
Clouds: sky clear below 12,000 feet AGL
Present Weather: no significant weather observed at this time
KSRQ 270153Z 33006KT 10SM CLR 29/23 A3001 RMK AO2 SLP160 T02890228

Conditions at: KSRQ observed 27 July 2017  00:53 UTC
Temperature: 29.4°C (85°F)
Dewpoint: 22.2°C (72°F) [RH = 65%]
Pressure (altimeter): 30.00 inches Hg (1016.0 mb)
[Sea-level pressure: 1015.8 mb]
Winds: from the NNW (330 degrees) at 9 MPH (8 knots; 4.2 m/s)
Visibility: 10 or more miles (16+ km)
Ceiling: at least 12,000 feet AGL
Clouds: sky clear below 12,000 feet AGL
Present Weather: no significant weather observed at this time
KSRQ 270053Z 33008KT 10SM CLR 29/22 A3000 RMK AO2 SLP158 T02940222

Conditions at: KSRQ observed 26 July 2017  23:53 UTC
Temperature: 30.6°C (87°F)
Dewpoint: 22.2°C (72°F) [RH = 61%]
Pressure (altimeter): 30.00 inches Hg (1016.0 mb)
[Sea-level pressure: 1015.8 mb]
Winds: from the NNW (330 degrees) at 8 MPH (7 knots; 3.6 m/s)
Visibility: 10 or more miles (16+ km)
Ceiling: at least 12,000 feet AGL
Clouds: sky clear below 12,000 feet AGL
Present Weather: no significant weather observed at this time
KSRQ 262353Z 33007KT 10SM CLR 31/22 A3000 RMK AO2 LTG DSNT SE SLP158 T03060222 10333 20306 55004

Conditions at: KSRQ observed 26 July 2017  22:53 UTC
Temperature: 31.7°C (89°F)
Dewpoint: 22.8°C (73°F) [RH = 59%]
Pressure (altimeter): 30.00 inches Hg (1016.0 mb)
[Sea-level pressure: 1015.7 mb]
Winds: from the WNW (290 degrees) at 9 MPH (8 knots; 4.2 m/s)
Visibility: 10 or more miles (16+ km)
Ceiling: at least 12,000 feet AGL
Clouds: sky clear below 12,000 feet AGL
Present Weather: no significant weather observed at this time
KSRQ 262253Z 29008KT 10SM CLR 32/23 A3000 RMK AO2 SLP157 T03170228

Conditions at: KSRQ observed 26 July 2017  21:53 UTC
Temperature: 32.2°C (90°F)
Dewpoint: 22.2°C (72°F) [RH = 56%]
Pressure (altimeter): 30.00 inches Hg (1016.0 mb)
[Sea-level pressure: 1015.8 mb]
Winds: from the WNW (290 degrees) at 13 MPH (11 knots; 5.7 m/s)
Visibility: 10 or more miles (16+ km)
Ceiling: at least 12,000 feet AGL
Clouds: sky clear below 12,000 feet AGL
Present Weather: no significant weather observed at this time
KSRQ 262153Z 29011KT 10SM CLR 32/22 A3000 RMK AO2 SLP158 T03220222

Conditions at: KSRQ observed 26 July 2017  20:53 UTC
Temperature: 32.8°C (91°F)
Dewpoint: 21.7°C (71°F) [RH = 52%]
Pressure (altimeter): 30.01 inches Hg (1016.3 mb)
[Sea-level pressure: 1016.1 mb]
Winds: from the W (280 degrees) at 13 MPH (11 knots; 5.7 m/s)
Visibility: 10 or more miles (16+ km)
Ceiling: at least 12,000 feet AGL
Clouds: sky clear below 12,000 feet AGL
Present Weather: no significant weather observed at this time
KSRQ 262053Z 28011KT 10SM CLR 33/22 A3001 RMK AO2 SLP161 T03280217 56023

Conditions at: KSRQ observed 26 July 2017  19:53 UTC
Temperature: 32.8°C (91°F)
Dewpoint: 22.2°C (72°F) [RH = 54%]
Pressure (altimeter): 30.03 inches Hg (1017.0 mb)
[Sea-level pressure: 1016.8 mb]
Winds: from the WNW (290 degrees) at 12 MPH (10 knots; 5.2 m/s)
Visibility: 10 or more miles (16+ km)
Ceiling: at least 12,000 feet AGL
Clouds: sky clear below 12,000 feet AGL
Present Weather: no significant weather observed at this time
KSRQ 261953Z 29010KT 10SM CLR 33/22 A3003 RMK AO2 SLP168 T03280222

Conditions at: KSRQ observed 26 July 2017  18:53 UTC
Temperature: 32.8°C (91°F)
Dewpoint: 23.9°C (75°F) [RH = 60%]
Pressure (altimeter): 30.06 inches Hg (1018.0 mb)
[Sea-level pressure: 1017.7 mb]
Winds: from the W (280 degrees) at 13 MPH (11 knots; 5.7 m/s)
Visibility: 10 or more miles (16+ km)
Ceiling: at least 12,000 feet AGL
Clouds: sky clear below 12,000 feet AGL
Present Weather: no significant weather observed at this time
KSRQ 261853Z 28011KT 10SM CLR 33/24 A3006 RMK AO2 SLP177 T03280239